Wastedo, Minnesota
Current Conditions -  °F | °C
As of 4:34 PM on Sunday 23 Nov 2014 (Local Time) from KSYN Reporting Station
Overcast Overcast  
Wind Chill: 38°   Ceiling: 2400
Heat Index: 43°   Visibility: 10mi
Dew Point: 39°   Wind: 8mph
Humidity: 84%   Direction: 310°NW
Pressure: 29.38"   Gusts: NA
Location:  44.4763°N, 92.8054°W
Report Text: KSYN 232234Z AUTO 31007KT 10SM BKN024 OVC039 06/04 A2938 RMK AO2 T00620037
Loading
Personal Weather Stations






























Interactive Weather Map New forecast layout! Learn more

10-Day Weather Forecast

Advertisements
Track Severe Weather on mobile